createdAt,value
2019-02-09T00:01:56.902Z,3.30
2019-02-09T00:04:26.817Z,3.40
2019-02-09T00:06:56.743Z,3.50
2019-02-09T00:09:27.036Z,3.80
2019-02-09T00:11:57.270Z,3.90
2019-02-09T00:14:27.166Z,3.90
2019-02-09T00:16:57.260Z,4.00
2019-02-09T00:19:27.158Z,4.20
2019-02-09T00:21:56.880Z,4.20
2019-02-09T00:24:26.758Z,4.40
2019-02-09T00:26:56.143Z,4.60
2019-02-09T00:29:25.957Z,4.80
2019-02-09T00:31:55.087Z,4.60
2019-02-09T00:34:25.613Z,4.30
2019-02-09T00:36:55.719Z,4.10
2019-02-09T00:39:25.576Z,4.20
2019-02-09T00:41:55.424Z,4.10
2019-02-09T00:44:25.408Z,4.00
2019-02-09T00:46:55.447Z,4.00
2019-02-09T00:49:25.508Z,4.10
2019-02-09T00:51:56.050Z,4.00
2019-02-09T00:54:25.604Z,3.90
2019-02-09T00:56:55.324Z,4.00
2019-02-09T00:59:25.438Z,4.10
2019-02-09T01:01:56.631Z,4.30
2019-02-09T01:04:26.804Z,4.30
2019-02-09T01:06:56.875Z,4.40
2019-02-09T01:09:27.314Z,4.30
2019-02-09T01:11:57.457Z,4.30
2019-02-09T01:14:27.584Z,4.20
2019-02-09T01:16:57.787Z,4.20
2019-02-09T01:19:27.910Z,4.40
2019-02-09T01:21:57.633Z,4.50
2019-02-09T01:24:28.148Z,4.60
2019-02-09T01:26:58.340Z,4.70
2019-02-09T01:29:28.121Z,4.90
2019-02-09T01:31:57.968Z,5.00
2019-02-09T01:34:28.538Z,4.90
2019-02-09T01:36:58.666Z,4.80
2019-02-09T01:39:28.466Z,4.70
2019-02-09T01:41:58.520Z,4.60
2019-02-09T01:44:27.627Z,4.60
2019-02-09T01:46:57.695Z,4.60
2019-02-09T01:49:27.887Z,4.70
2019-02-09T01:51:57.100Z,4.90
2019-02-09T01:54:27.334Z,5.00
2019-02-09T01:56:57.465Z,4.90
2019-02-09T01:59:27.287Z,4.90
2019-02-09T02:01:57.744Z,5.10
2019-02-09T02:04:27.204Z,5.10
2019-02-09T02:06:57.701Z,5.20
2019-02-09T02:09:27.552Z,5.30
2019-02-09T02:11:58.042Z,5.30
2019-02-09T02:14:28.203Z,5.40
2019-02-09T02:17:09.175Z,5.50
2019-02-09T02:19:38.635Z,5.60
2019-02-09T02:22:08.763Z,5.70
2019-02-09T02:24:38.597Z,5.80
2019-02-09T02:27:08.715Z,5.90
2019-02-09T02:29:38.456Z,5.90
2019-02-09T02:32:08.318Z,5.90
2019-02-09T02:34:38.076Z,6.10
2019-02-09T02:37:07.869Z,6.00
2019-02-09T02:39:38.000Z,5.90
2019-02-09T02:42:07.405Z,5.90
2019-02-09T02:44:37.209Z,5.90
2019-02-09T02:47:07.703Z,5.90
2019-02-09T02:49:37.923Z,6.00
2019-02-09T02:52:08.717Z,6.00
2019-02-09T02:54:38.720Z,6.00
2019-02-09T02:57:09.065Z,5.90
2019-02-09T02:59:38.926Z,5.70
2019-02-09T03:02:08.652Z,5.60
2019-02-09T03:04:38.774Z,5.50
2019-02-09T03:07:08.590Z,5.60
2019-02-09T03:09:38.618Z,5.50
2019-02-09T03:12:08.766Z,5.50
2019-02-09T03:14:38.590Z,5.40
2019-02-09T03:17:08.839Z,5.60
2019-02-09T03:19:38.604Z,5.70
2019-02-09T03:22:08.539Z,5.80
2019-02-09T03:24:38.707Z,5.70
2019-02-09T03:27:08.587Z,5.70
2019-02-09T03:29:37.982Z,5.60
2019-02-09T03:32:10.753Z,5.60
2019-02-09T03:34:39.498Z,5.60
2019-02-09T03:37:09.623Z,5.50
2019-02-09T03:39:40.060Z,5.40
2019-02-09T03:42:09.879Z,5.40
2019-02-09T03:44:39.343Z,5.40
2019-02-09T03:47:09.157Z,5.30
2019-02-09T03:49:38.590Z,5.30
2019-02-09T03:52:09.009Z,5.30
2019-02-09T03:54:39.523Z,5.40
2019-02-09T03:57:09.334Z,5.60
2019-02-09T03:59:39.412Z,5.80
2019-02-09T04:02:09.487Z,6.00
2019-02-09T04:04:38.992Z,6.20
2019-02-09T04:07:09.192Z,6.20
2019-02-09T04:09:38.974Z,6.10
2019-02-09T04:12:08.879Z,6.10
2019-02-09T04:14:38.825Z,6.00
2019-02-09T04:17:08.660Z,6.10
2019-02-09T04:19:38.436Z,6.20
2019-02-09T04:22:08.689Z,6.20
2019-02-09T04:24:38.393Z,6.30
2019-02-09T04:27:09.082Z,6.30
2019-02-09T04:29:38.848Z,6.20
2019-02-09T04:32:08.655Z,6.10
2019-02-09T04:34:38.467Z,6.00
2019-02-09T04:37:08.166Z,5.90
2019-02-09T04:39:37.629Z,5.90
2019-02-09T04:42:07.766Z,5.90
2019-02-09T04:44:37.620Z,5.90
2019-02-09T04:47:07.744Z,6.00
2019-02-09T04:49:38.180Z,6.10
2019-02-09T04:52:08.070Z,6.10
2019-02-09T04:54:37.878Z,6.30
2019-02-09T04:57:07.937Z,6.20
2019-02-09T04:59:38.120Z,6.10
2019-02-09T05:02:08.142Z,5.90
2019-02-09T05:04:38.700Z,5.80
2019-02-09T05:07:08.756Z,5.70
2019-02-09T05:09:38.866Z,5.80
2019-02-09T05:12:08.739Z,5.90
2019-02-09T05:14:38.182Z,5.90
2019-02-09T05:17:07.725Z,6.00
2019-02-09T05:19:37.907Z,6.00
2019-02-09T05:22:08.069Z,6.10
2019-02-09T05:24:38.115Z,6.00
2019-02-09T05:27:08.519Z,5.90
2019-02-09T05:29:37.922Z,5.80
2019-02-09T05:32:08.576Z,5.80
2019-02-09T05:34:38.278Z,5.80
2019-02-09T05:37:08.086Z,5.80
2019-02-09T05:39:38.626Z,5.80
2019-02-09T05:42:09.365Z,5.80
2019-02-09T05:44:39.609Z,5.90
2019-02-09T05:47:10.283Z,6.00
2019-02-09T05:49:40.909Z,6.00
2019-02-09T05:52:11.151Z,6.10
2019-02-09T05:54:41.326Z,6.10
2019-02-09T05:57:11.579Z,6.10
2019-02-09T06:00:00.545Z,6.10
2019-02-09T06:02:30.379Z,6.20
2019-02-09T06:05:00.825Z,6.20
2019-02-09T06:07:30.697Z,6.10
2019-02-09T06:10:00.941Z,5.90
2019-02-09T06:12:30.647Z,5.80
2019-02-09T06:15:00.452Z,5.70
2019-02-09T06:17:30.671Z,5.70
2019-02-09T06:20:00.895Z,5.60
2019-02-09T06:22:31.371Z,5.60
2019-02-09T06:25:01.881Z,5.70
2019-02-09T06:27:32.402Z,5.70
2019-02-09T06:30:02.926Z,5.60
2019-02-09T06:32:33.170Z,5.60
2019-02-09T06:35:02.673Z,5.70
2019-02-09T06:37:32.811Z,5.70
2019-02-09T06:40:02.919Z,5.70
2019-02-09T06:42:32.989Z,5.70
2019-02-09T06:45:02.889Z,5.70
2019-02-09T06:47:33.079Z,5.70
2019-02-09T06:50:03.236Z,5.80
2019-02-09T06:52:32.970Z,5.80
2019-02-09T06:55:02.105Z,6.00
2019-02-09T06:57:32.660Z,6.00
2019-02-09T07:00:03.130Z,6.10
2019-02-09T07:02:33.244Z,6.10
2019-02-09T07:05:03.491Z,6.10
2019-02-09T07:07:33.972Z,6.10
2019-02-09T07:10:04.139Z,6.20
2019-02-09T07:12:34.227Z,6.10
2019-02-09T07:15:04.417Z,6.20
2019-02-09T07:17:34.811Z,6.30
2019-02-09T07:20:04.690Z,6.30
2019-02-09T07:22:34.482Z,6.50
2019-02-09T07:25:05.147Z,6.50
2019-02-09T07:27:35.538Z,6.50
2019-02-09T07:30:06.214Z,6.50
2019-02-09T07:32:36.699Z,6.40
2019-02-09T07:35:06.841Z,6.40
2019-02-09T07:37:37.370Z,6.40
2019-02-09T07:40:08.170Z,6.40
2019-02-09T07:42:38.115Z,6.40
2019-02-09T07:45:09.643Z,6.50
2019-02-09T07:47:40.094Z,6.40
2019-02-09T07:50:11.014Z,6.40
2019-02-09T07:52:41.417Z,6.40
2019-02-09T07:55:12.575Z,6.50
2019-02-09T07:57:42.746Z,6.50
2019-02-09T08:00:18.695Z,6.70
2019-02-09T08:02:48.454Z,6.90
2019-02-09T08:05:18.288Z,7.00
2019-02-09T08:07:48.758Z,7.00
2019-02-09T08:10:20.662Z,7.00
2019-02-09T08:12:51.224Z,6.90
2019-02-09T08:15:23.079Z,7.10
2019-02-09T08:17:53.498Z,7.20
2019-02-09T08:20:24.563Z,7.20
2019-02-09T08:22:56.036Z,7.20
2019-02-09T08:25:27.188Z,7.20
2019-02-09T08:27:57.402Z,7.20
2019-02-09T08:30:29.953Z,7.10
2019-02-09T08:33:00.055Z,7.10
2019-02-09T08:35:30.018Z,7.20
2019-02-09T08:37:59.898Z,7.10
2019-02-09T08:40:29.691Z,7.10
2019-02-09T08:42:59.923Z,7.10
2019-02-09T08:45:30.260Z,7.00
2019-02-09T08:48:00.475Z,7.00
2019-02-09T08:50:38.459Z,7.10
2019-02-09T08:53:08.677Z,7.00
2019-02-09T08:55:38.404Z,7.00
2019-02-09T08:58:08.342Z,7.00
2019-02-09T09:00:37.935Z,7.10
2019-02-09T09:03:07.865Z,7.30
2019-02-09T09:05:38.105Z,7.40
2019-02-09T09:08:08.172Z,7.50
2019-02-09T09:10:38.060Z,7.50
2019-02-09T09:13:07.919Z,7.70
2019-02-09T09:15:45.669Z,7.70
2019-02-09T09:18:15.528Z,7.70
2019-02-09T09:20:48.826Z,7.70
2019-02-09T09:23:18.316Z,7.70
2019-02-09T09:25:48.898Z,7.70
2019-02-09T09:28:19.418Z,7.70
2019-02-09T09:30:49.388Z,7.70
2019-02-09T09:33:19.559Z,7.60
2019-02-09T09:35:49.953Z,7.60
2019-02-09T09:38:20.183Z,7.60
2019-02-09T09:40:49.985Z,7.70
2019-02-09T09:43:19.891Z,7.60
2019-02-09T09:45:50.756Z,7.60
2019-02-09T09:48:21.694Z,7.90
2019-02-09T09:50:51.978Z,8.00
2019-02-09T09:53:22.227Z,8.10
2019-02-09T09:55:52.847Z,8.20
2019-02-09T09:58:22.775Z,8.40
2019-02-09T10:00:53.103Z,8.60
2019-02-09T10:03:22.672Z,8.70
2019-02-09T10:05:52.134Z,8.80
2019-02-09T10:08:26.064Z,8.90
2019-02-09T10:10:56.255Z,9.10
2019-02-09T10:13:26.566Z,9.10
2019-02-09T10:15:56.654Z,9.10
2019-02-09T10:18:26.820Z,9.00
2019-02-09T10:20:57.438Z,9.10
2019-02-09T10:23:27.718Z,9.20
2019-02-09T10:25:57.175Z,9.40
2019-02-09T10:28:27.370Z,9.50
2019-02-09T10:31:15.994Z,9.40
2019-02-09T10:33:46.495Z,9.30
2019-02-09T10:36:16.663Z,9.30
2019-02-09T10:38:47.383Z,9.50
2019-02-09T10:41:17.896Z,9.60
2019-02-09T10:43:48.416Z,9.60
2019-02-09T10:46:18.774Z,9.50
2019-02-09T10:48:49.003Z,9.50
2019-02-09T10:51:18.964Z,9.70
2019-02-09T10:53:49.156Z,9.80
2019-02-09T10:56:19.398Z,9.90
2019-02-09T10:59:08.680Z,10.10
2019-02-09T11:01:38.908Z,10.00
2019-02-09T11:04:08.379Z,10.00
2019-02-09T11:06:38.665Z,9.80
2019-02-09T11:09:14.823Z,9.40
2019-02-09T11:11:45.115Z,9.20
2019-02-09T11:14:14.249Z,9.30
2019-02-09T11:16:44.497Z,9.50
2019-02-09T11:19:13.982Z,9.70
2019-02-09T11:21:44.686Z,9.70
2019-02-09T11:24:15.732Z,9.80
2019-02-09T11:26:46.175Z,9.90
2019-02-09T11:29:16.602Z,9.90
2019-02-09T11:31:46.619Z,10.00
2019-02-09T11:34:16.146Z,10.00
2019-02-09T11:36:46.259Z,10.10
2019-02-09T11:39:16.468Z,10.30
2019-02-09T11:41:46.328Z,10.50
2019-02-09T11:44:16.438Z,10.50
2019-02-09T11:46:47.651Z,10.30
2019-02-09T11:49:17.182Z,10.20
2019-02-09T11:51:47.100Z,10.20
2019-02-09T11:54:17.329Z,10.20
2019-02-09T11:56:47.637Z,10.10
2019-02-09T11:59:17.518Z,9.90
2019-02-09T12:01:47.772Z,9.60
2019-02-09T12:04:17.574Z,9.40
2019-02-09T12:06:48.029Z,9.30
2019-02-09T12:09:18.271Z,9.20
2019-02-09T12:11:48.447Z,9.20
2019-02-09T12:14:18.614Z,8.90
2019-02-09T12:16:48.988Z,8.80
2019-02-09T12:19:19.675Z,8.60
2019-02-09T12:21:52.806Z,8.40
2019-02-09T12:24:23.209Z,8.60
2019-02-09T12:26:53.416Z,8.60
2019-02-09T12:29:23.564Z,8.60
2019-02-09T12:31:53.521Z,8.50
2019-02-09T12:34:23.835Z,8.60
2019-02-09T12:36:53.910Z,8.70
2019-02-09T12:39:34.449Z,8.70
2019-02-09T12:42:04.012Z,8.80
2019-02-09T12:44:34.255Z,9.00
2019-02-09T12:47:04.531Z,8.90
2019-02-09T12:49:34.787Z,9.00
2019-02-09T12:52:04.804Z,8.90
2019-02-09T12:54:35.515Z,8.90
2019-02-09T12:57:05.837Z,8.90
2019-02-09T12:59:35.873Z,9.00
2019-02-09T13:02:06.051Z,9.10
2019-02-09T13:04:35.885Z,9.20
2019-02-09T13:07:05.688Z,9.20
2019-02-09T13:09:35.838Z,9.20
2019-02-09T13:12:06.523Z,9.20
2019-02-09T13:14:36.805Z,9.30
2019-02-09T13:17:07.101Z,9.30
2019-02-09T13:19:37.137Z,9.30
2019-02-09T13:22:06.936Z,9.40
2019-02-09T13:24:36.853Z,9.40
2019-02-09T13:27:07.740Z,9.60
2019-02-09T13:29:36.931Z,9.60
2019-02-09T13:32:07.487Z,9.60
2019-02-09T13:34:37.696Z,9.60
2019-02-09T13:37:07.178Z,9.60
2019-02-09T13:39:37.143Z,9.60
2019-02-09T13:42:07.497Z,9.50
2019-02-09T13:44:37.413Z,9.40
2019-02-09T13:47:07.303Z,9.30
2019-02-09T13:49:37.783Z,9.00
2019-02-09T13:52:08.427Z,8.40
2019-02-09T13:54:38.791Z,8.00
2019-02-09T13:57:08.859Z,7.80
2019-02-09T13:59:39.087Z,7.80
2019-02-09T14:02:12.382Z,7.80
2019-02-09T14:04:42.324Z,7.80
2019-02-09T14:07:12.431Z,7.90
2019-02-09T14:09:41.570Z,7.90
2019-02-09T14:12:12.033Z,7.80
2019-02-09T14:14:42.525Z,7.70
2019-02-09T14:17:13.110Z,7.80
2019-02-09T14:19:43.044Z,7.70
2019-02-09T14:22:52.993Z,7.60
2019-02-09T14:25:42.299Z,7.60
2019-02-09T14:28:13.116Z,7.60
2019-02-09T14:30:43.031Z,7.70
2019-02-09T14:33:17.282Z,7.80
2019-02-09T14:35:55.936Z,7.80
2019-02-09T14:38:27.258Z,7.80
2019-02-09T14:40:57.753Z,8.00
2019-02-09T14:43:28.784Z,8.00
2019-02-09T14:45:58.690Z,8.00
2019-02-09T14:48:29.204Z,8.00
2019-02-09T14:51:02.065Z,7.90
2019-02-09T14:53:32.220Z,7.80
2019-02-09T14:56:01.696Z,7.80
2019-02-09T14:58:32.189Z,7.80
2019-02-09T15:01:02.278Z,7.80
2019-02-09T15:03:32.390Z,7.80
2019-02-09T15:06:02.586Z,7.70
2019-02-09T15:08:32.758Z,7.70
2019-02-09T15:11:03.171Z,7.70
2019-02-09T15:13:32.965Z,7.70
2019-02-09T15:16:26.930Z,7.70
2019-02-09T15:18:56.760Z,7.60
2019-02-09T15:21:26.295Z,7.60
2019-02-09T15:23:56.493Z,7.60
2019-02-09T15:26:26.587Z,7.60
2019-02-09T15:28:56.816Z,7.60
2019-02-09T15:31:26.706Z,7.60
2019-02-09T15:33:56.180Z,7.50
2019-02-09T15:36:25.657Z,7.50
2019-02-09T15:38:55.756Z,7.50
2019-02-09T15:41:25.682Z,7.50
2019-02-09T15:43:55.551Z,7.50
2019-02-09T15:46:25.476Z,7.50
2019-02-09T15:48:56.030Z,7.50
2019-02-09T15:51:26.356Z,7.40
2019-02-09T15:53:56.242Z,7.40
2019-02-09T15:56:26.412Z,7.40
2019-02-09T15:58:56.288Z,7.40
2019-02-09T16:01:26.871Z,7.40
2019-02-09T16:03:57.523Z,7.40
2019-02-09T16:06:28.017Z,7.40
2019-02-09T16:08:58.256Z,7.40
2019-02-09T16:11:28.576Z,7.60
2019-02-09T16:13:58.471Z,7.70
2019-02-09T16:16:28.288Z,7.60
2019-02-09T16:18:58.069Z,7.60
2019-02-09T16:21:28.453Z,7.50
2019-02-09T16:23:58.107Z,7.40
2019-02-09T16:26:28.734Z,7.50
2019-02-09T16:28:58.499Z,7.40
2019-02-09T16:31:28.735Z,7.30
2019-02-09T16:33:58.641Z,7.30
2019-02-09T16:36:28.923Z,7.30
2019-02-09T16:38:59.034Z,7.30
2019-02-09T16:41:29.479Z,7.30
2019-02-09T16:43:59.037Z,7.30
2019-02-09T16:46:29.273Z,7.30
2019-02-09T16:48:59.227Z,7.30
2019-02-09T16:51:28.766Z,7.30
2019-02-09T16:53:59.068Z,7.20
2019-02-09T16:56:29.376Z,7.30
2019-02-09T16:58:59.029Z,7.20
2019-02-09T17:01:29.623Z,7.30
2019-02-09T17:03:59.580Z,7.20
2019-02-09T17:06:29.436Z,7.30
2019-02-09T17:08:59.627Z,7.30
2019-02-09T17:11:29.216Z,7.20
2019-02-09T17:13:59.430Z,7.20
2019-02-09T17:16:30.053Z,7.20
2019-02-09T17:18:59.933Z,7.20
2019-02-09T17:21:29.748Z,7.20
2019-02-09T17:23:59.650Z,7.30
2019-02-09T17:26:30.230Z,7.30
2019-02-09T17:28:59.873Z,7.30
2019-02-09T17:31:29.532Z,7.30
2019-02-09T17:33:58.746Z,7.10
2019-02-09T17:36:28.933Z,7.20
2019-02-09T17:38:58.804Z,7.30
2019-02-09T17:41:28.885Z,7.30
2019-02-09T17:43:58.884Z,7.30
2019-02-09T17:46:29.009Z,7.40
2019-02-09T17:48:59.218Z,7.50
2019-02-09T17:51:28.994Z,7.50
2019-02-09T17:53:59.286Z,7.60
2019-02-09T17:56:29.812Z,7.50
2019-02-09T17:58:59.781Z,7.30
2019-02-09T18:01:30.189Z,7.40
2019-02-09T18:04:00.286Z,7.40
2019-02-09T18:06:30.663Z,7.40
2019-02-09T18:09:00.498Z,7.40
2019-02-09T18:11:30.726Z,7.30
2019-02-09T18:14:00.824Z,7.30
2019-02-09T18:16:30.743Z,7.20
2019-02-09T18:18:59.862Z,7.20
2019-02-09T18:21:30.159Z,7.10
2019-02-09T18:24:00.608Z,7.10
2019-02-09T18:26:30.591Z,7.10
2019-02-09T18:29:00.800Z,7.00
2019-02-09T18:31:31.109Z,7.00
2019-02-09T18:34:01.479Z,7.00
2019-02-09T18:36:32.087Z,7.00
2019-02-09T18:39:01.858Z,7.00
2019-02-09T18:41:31.358Z,7.10
2019-02-09T18:44:01.688Z,7.10
2019-02-09T18:46:31.234Z,7.10
2019-02-09T18:49:01.354Z,7.20
2019-02-09T18:51:30.858Z,7.10
2019-02-09T18:54:00.676Z,7.00
2019-02-09T18:56:30.925Z,7.10
2019-02-09T18:59:01.225Z,7.00
2019-02-09T19:01:31.778Z,7.00
2019-02-09T19:04:02.115Z,6.80
2019-02-09T19:06:31.999Z,6.90
2019-02-09T19:09:01.779Z,6.90
2019-02-09T19:11:31.646Z,6.80
2019-02-09T19:14:01.725Z,6.80
2019-02-09T19:16:32.234Z,6.70
2019-02-09T19:19:02.135Z,6.80
2019-02-09T19:21:32.743Z,6.70
2019-02-09T19:24:03.170Z,6.70
2019-02-09T19:26:33.426Z,6.70
2019-02-09T19:29:03.742Z,6.80
2019-02-09T19:31:34.297Z,6.80
2019-02-09T19:34:04.531Z,6.80
2019-02-09T19:36:34.591Z,6.80
2019-02-09T19:39:06.793Z,6.70
2019-02-09T19:41:36.606Z,6.70
2019-02-09T19:44:06.841Z,6.70
2019-02-09T19:46:37.481Z,6.70
2019-02-09T19:49:08.104Z,6.70
2019-02-09T19:51:37.641Z,6.70
2019-02-09T19:54:07.880Z,6.70
2019-02-09T19:56:38.176Z,6.70
2019-02-09T19:59:08.191Z,6.70
2019-02-09T20:01:38.300Z,6.80
2019-02-09T20:04:08.143Z,6.80
2019-02-09T20:06:38.567Z,7.10
2019-02-09T20:09:09.850Z,7.10
2019-02-09T20:11:40.123Z,7.10
2019-02-09T20:14:09.771Z,7.20
2019-02-09T20:16:39.748Z,7.10
2019-02-09T20:19:09.242Z,7.10
2019-02-09T20:21:38.818Z,7.10
2019-02-09T20:24:09.080Z,7.20
2019-02-09T20:26:39.605Z,7.20
2019-02-09T20:29:09.740Z,7.20
2019-02-09T20:31:40.181Z,7.20
2019-02-09T20:34:10.534Z,7.20
2019-02-09T20:36:40.111Z,7.10
2019-02-09T20:39:10.194Z,7.20
2019-02-09T20:41:40.114Z,7.30
2019-02-09T20:44:10.040Z,7.30
2019-02-09T20:46:40.609Z,7.30
2019-02-09T20:49:10.163Z,7.30
2019-02-09T20:51:40.355Z,7.20
2019-02-09T20:54:10.214Z,7.10
2019-02-09T20:56:40.196Z,7.00
2019-02-09T20:59:10.137Z,7.10
2019-02-09T21:01:40.055Z,7.20
2019-02-09T21:04:10.530Z,7.20
2019-02-09T21:06:40.797Z,7.20
2019-02-09T21:09:10.719Z,7.10
2019-02-09T21:11:40.926Z,7.00
2019-02-09T21:14:10.516Z,7.00
2019-02-09T21:16:40.665Z,7.00
2019-02-09T21:19:10.155Z,6.90
2019-02-09T21:21:40.628Z,6.90
2019-02-09T21:24:10.156Z,6.90
2019-02-09T21:26:40.728Z,6.90
2019-02-09T21:29:09.952Z,7.00
2019-02-09T21:31:40.403Z,7.00
2019-02-09T21:34:09.874Z,6.90
2019-02-09T21:36:39.754Z,6.90
2019-02-09T21:39:11.085Z,7.00
2019-02-09T21:41:41.069Z,7.10
2019-02-09T21:44:11.968Z,7.00
2019-02-09T21:46:41.789Z,7.00
2019-02-09T21:49:11.770Z,6.90
2019-02-09T21:51:41.911Z,7.10
2019-02-09T21:54:11.036Z,7.30
2019-02-09T21:56:40.928Z,7.20
2019-02-09T21:59:11.378Z,7.00
2019-02-09T22:01:41.280Z,7.00
2019-02-09T22:04:11.098Z,7.10
2019-02-09T22:06:41.286Z,7.10
2019-02-09T22:09:11.872Z,7.00
2019-02-09T22:11:41.608Z,6.90
2019-02-09T22:14:12.219Z,6.90
2019-02-09T22:16:42.393Z,6.80
2019-02-09T22:19:12.209Z,6.80
2019-02-09T22:21:42.841Z,6.90
2019-02-09T22:24:13.616Z,6.90
2019-02-09T22:26:43.239Z,7.00
2019-02-09T22:29:32.596Z,6.90
2019-02-09T22:32:02.745Z,6.80
2019-02-09T22:34:32.181Z,6.80
2019-02-09T22:37:02.759Z,6.70
2019-02-09T22:39:32.620Z,6.80
2019-02-09T22:42:02.863Z,6.80
2019-02-09T22:44:33.144Z,6.60
2019-02-09T22:47:02.975Z,6.40
2019-02-09T22:49:33.118Z,6.30
2019-02-09T22:52:03.324Z,6.20
2019-02-09T22:54:33.245Z,6.00
2019-02-09T22:57:03.465Z,6.00
2019-02-09T22:59:33.254Z,5.90
2019-02-09T23:02:04.103Z,5.80
2019-02-09T23:05:11.287Z,5.80
2019-02-09T23:07:42.757Z,5.70
2019-02-09T23:10:16.178Z,5.90
2019-02-09T23:12:48.681Z,6.00
2019-02-09T23:15:18.219Z,6.00
2019-02-09T23:17:48.142Z,6.00
2019-02-09T23:20:18.004Z,6.00
2019-02-09T23:22:47.529Z,6.00
2019-02-09T23:25:17.759Z,5.90
2019-02-09T23:27:48.202Z,5.80
2019-02-09T23:30:18.214Z,5.70
2019-02-09T23:32:48.385Z,5.70
2019-02-09T23:35:18.857Z,5.80
2019-02-09T23:37:49.023Z,5.80
2019-02-09T23:40:18.536Z,5.80
2019-02-09T23:42:49.156Z,5.70
2019-02-09T23:45:19.397Z,5.80
2019-02-09T23:47:49.343Z,5.70
2019-02-09T23:50:19.557Z,5.70
2019-02-09T23:52:49.463Z,5.50
2019-02-09T23:55:19.223Z,5.60
2019-02-09T23:57:49.392Z,5.60
